Time,TemperatureF,DewpointF,PressureIn,WindDirection,WindDirectionDegrees,WindSpeedMPH,WindSpeedGustMPH,Humidity,HourlyPrecipIn,Conditions,Clouds,dailyrainin,SolarRadiationWatts/m^2,SoftwareType,DateUTC
2013-02-13 00:08:00,70.5,69.0,30.01,SE,144,0.0,-999.0,96,-99.99,,,0.00,0,weatherlink.com 1.10,2013-02-13 05:08:00,
2013-02-13 00:23:00,70.6,70.0,30.01,SE,144,0.0,-999.0,96,-99.99,,,0.00,0,weatherlink.com 1.10,2013-02-13 05:23:00,
2013-02-13 00:38:00,70.5,69.0,30.01,SE,144,0.0,-999.0,96,-99.99,,,0.00,0,weatherlink.com 1.10,2013-02-13 05:38:00,
2013-02-13 00:53:00,70.4,69.0,30.01,SE,144,0.0,-999.0,96,-99.99,,,0.00,0,weatherlink.com 1.10,2013-02-13 05:53:00,
2013-02-13 01:08:00,70.5,69.0,30.00,SSE,147,0.0,-999.0,96,-99.99,,,0.00,0,weatherlink.com 1.10,2013-02-13 06:08:00,
2013-02-13 01:23:00,70.6,70.0,30.00,SE,145,0.0,-999.0,96,-99.99,,,0.01,0,weatherlink.com 1.10,2013-02-13 06:23:00,
2013-02-13 01:38:00,70.5,69.0,29.99,SSE,156,0.0,-999.0,96,-99.99,,,0.01,0,weatherlink.com 1.10,2013-02-13 06:38:00,
2013-02-13 01:53:00,70.7,70.0,29.98,SSE,148,0.0,-999.0,96,-99.99,,,0.01,0,weatherlink.com 1.10,2013-02-13 06:53:00,
2013-02-13 02:08:00,71.0,70.0,29.98,SE,146,0.0,-999.0,97,-99.99,,,0.01,0,weatherlink.com 1.10,2013-02-13 07:08:00,
2013-02-13 02:23:00,71.0,70.0,29.97,SE,141,0.0,-999.0,97,-99.99,,,0.01,0,weatherlink.com 1.10,2013-02-13 07:23:00,
2013-02-13 02:38:00,71.2,70.0,29.97,SSE,148,0.0,-999.0,97,-99.99,,,0.01,0,weatherlink.com 1.10,2013-02-13 07:38:00,
2013-02-13 02:53:00,71.3,70.0,29.97,WSW,252,0.0,-999.0,97,-99.99,,,0.01,0,weatherlink.com 1.10,2013-02-13 07:53:00,
2013-02-13 03:08:00,71.4,71.0,29.97,South,171,0.0,-999.0,97,-99.99,,,0.01,0,weatherlink.com 1.10,2013-02-13 08:08:00,
2013-02-13 03:23:00,71.4,71.0,29.97,SSE,150,0.0,-999.0,97,-99.99,,,0.01,0,weatherlink.com 1.10,2013-02-13 08:23:00,
2013-02-13 03:38:00,71.4,71.0,29.97,SSE,168,0.0,-999.0,97,-99.99,,,0.01,0,weatherlink.com 1.10,2013-02-13 08:38:00,
2013-02-13 03:53:00,71.3,70.0,29.97,SSE,149,0.0,-999.0,97,-99.99,,,0.01,0,weatherlink.com 1.10,2013-02-13 08:53:00,
2013-02-13 04:08:00,71.4,71.0,29.97,SE,146,0.0,-999.0,97,-99.99,,,0.01,0,weatherlink.com 1.10,2013-02-13 09:08:00,
2013-02-13 04:23:00,71.3,70.0,29.96,SSE,150,0.0,-999.0,97,-99.99,,,0.01,0,weatherlink.com 1.10,2013-02-13 09:23:00,
2013-02-13 04:38:00,71.3,70.0,29.96,SSE,165,0.0,-999.0,97,-99.99,,,0.01,0,weatherlink.com 1.10,2013-02-13 09:38:00,
2013-02-13 04:53:00,71.3,70.0,29.96,SSE,158,0.0,-999.0,97,-99.99,,,0.01,0,weatherlink.com 1.10,2013-02-13 09:53:00,
2013-02-13 05:09:00,71.3,70.0,29.96,SSE,160,0.0,-999.0,97,-99.99,,,0.01,0,weatherlink.com 1.10,2013-02-13 10:09:00,
2013-02-13 05:23:00,71.4,71.0,29.97,ESE,117,0.0,-999.0,97,-99.99,,,0.01,0,weatherlink.com 1.10,2013-02-13 10:23:00,
2013-02-13 05:38:00,71.3,70.0,29.97,ESE,117,0.0,-999.0,97,-99.99,,,0.01,0,weatherlink.com 1.10,2013-02-13 10:38:00,
2013-02-13 05:53:00,71.4,71.0,29.97,South,171,0.0,-999.0,97,-99.99,,,0.01,0,weatherlink.com 1.10,2013-02-13 10:53:00,
2013-02-13 06:08:00,71.6,71.0,29.97,SSE,156,0.0,-999.0,97,-99.99,,,0.01,0,weatherlink.com 1.10,2013-02-13 11:08:00,
2013-02-13 06:23:00,71.7,71.0,29.97,South,185,0.0,-999.0,97,-99.99,,,0.02,0,weatherlink.com 1.10,2013-02-13 11:23:00,
2013-02-13 06:38:00,71.7,71.0,29.97,SE,132,0.0,-999.0,97,-99.99,,,0.02,0,weatherlink.com 1.10,2013-02-13 11:38:00,
2013-02-13 06:53:00,71.7,71.0,29.97,SE,134,0.0,-999.0,97,-99.99,,,0.02,0,weatherlink.com 1.10,2013-02-13 11:53:00,
2013-02-13 07:08:00,71.7,71.0,29.98,South,178,0.0,-999.0,97,-99.99,,,0.02,7,weatherlink.com 1.10,2013-02-13 12:08:00,
2013-02-13 07:23:00,71.7,71.0,29.98,South,190,0.0,-999.0,97,-99.99,,,0.02,23,weatherlink.com 1.10,2013-02-13 12:23:00,
2013-02-13 07:38:00,72.0,71.0,29.98,SSE,152,0.0,-999.0,97,-99.99,,,0.02,40,weatherlink.com 1.10,2013-02-13 12:38:00,
2013-02-13 07:53:00,72.3,71.0,29.98,SSE,149,0.0,-999.0,97,-99.99,,,0.02,53,weatherlink.com 1.10,2013-02-13 12:53:00,
2013-02-13 08:08:00,72.8,72.0,29.99,West,266,0.0,-999.0,97,-99.99,,,0.02,91,weatherlink.com 1.10,2013-02-13 13:08:00,
2013-02-13 08:23:00,73.3,72.0,29.99,SW,223,1.0,-999.0,97,-99.99,,,0.02,134,weatherlink.com 1.10,2013-02-13 13:23:00,
2013-02-13 08:38:00,73.4,73.0,29.99,WSW,244,0.0,-999.0,97,-99.99,,,0.02,118,weatherlink.com 1.10,2013-02-13 13:38:00,
2013-02-13 08:53:00,74.1,73.0,30.00,SE,128,0.0,-999.0,97,-99.99,,,0.02,163,weatherlink.com 1.10,2013-02-13 13:53:00,
2013-02-13 09:08:00,74.8,74.0,30.00,ESE,102,0.0,-999.0,97,-99.99,,,0.02,301,weatherlink.com 1.10,2013-02-13 14:08:00,
2013-02-13 09:23:00,75.7,75.0,30.01,WSW,250,0.0,-999.0,97,-99.99,,,0.02,401,weatherlink.com 1.10,2013-02-13 14:23:00,
2013-02-13 09:38:00,76.6,75.0,30.01,SW,221,0.0,-999.0,95,-99.99,,,0.02,503,weatherlink.com 1.10,2013-02-13 14:38:00,
2013-02-13 09:53:00,77.3,75.0,30.02,WSW,246,0.0,-999.0,91,-99.99,,,0.02,538,weatherlink.com 1.10,2013-02-13 14:53:00,
2013-02-13 10:08:00,78.4,75.0,30.02,WSW,238,3.0,-999.0,89,-99.99,,,0.02,552,weatherlink.com 1.10,2013-02-13 15:08:00,
2013-02-13 10:24:00,79.2,75.0,30.02,WSW,238,3.0,-999.0,86,-99.99,,,0.02,578,weatherlink.com 1.10,2013-02-13 15:24:00,
2013-02-13 10:38:00,79.6,74.0,30.02,West,269,5.0,-999.0,84,-99.99,,,0.02,603,weatherlink.com 1.10,2013-02-13 15:38:00,
2013-02-13 10:53:00,79.7,75.0,30.02,SW,233,4.0,-999.0,84,-99.99,,,0.02,643,weatherlink.com 1.10,2013-02-13 15:53:00,
2013-02-13 11:08:00,80.4,75.0,30.02,SSW,212,0.0,-999.0,83,-99.99,,,0.02,661,weatherlink.com 1.10,2013-02-13 16:08:00,
2013-02-13 11:23:00,81.1,75.0,30.02,WSW,241,1.0,-999.0,82,-99.99,,,0.02,684,weatherlink.com 1.10,2013-02-13 16:23:00,
2013-02-13 11:38:00,81.6,75.0,30.01,West,278,2.0,-999.0,80,-99.99,,,0.02,707,weatherlink.com 1.10,2013-02-13 16:38:00,
2013-02-13 11:53:00,81.2,75.0,30.00,SSE,161,0.0,-999.0,80,-99.99,,,0.02,729,weatherlink.com 1.10,2013-02-13 16:53:00,
2013-02-13 12:08:00,80.9,74.0,29.99,West,271,4.0,-999.0,80,-99.99,,,0.02,740,weatherlink.com 1.10,2013-02-13 17:08:00,
2013-02-13 12:23:00,81.0,74.0,29.99,West,277,1.0,-999.0,80,-99.99,,,0.02,745,weatherlink.com 1.10,2013-02-13 17:23:00,
2013-02-13 12:38:00,80.9,74.0,29.98,WSW,248,2.0,-999.0,80,-99.99,,,0.02,747,weatherlink.com 1.10,2013-02-13 17:38:00,
2013-02-13 12:54:00,81.2,74.0,29.98,WSW,246,2.0,-999.0,79,-99.99,,,0.02,749,weatherlink.com 1.10,2013-02-13 17:54:00,
2013-02-13 13:08:00,81.6,74.0,29.97,WNW,291,2.0,-999.0,78,-99.99,,,0.02,745,weatherlink.com 1.10,2013-02-13 18:08:00,
2013-02-13 13:23:00,81.6,74.0,29.96,SW,216,2.0,-999.0,78,-99.99,,,0.02,737,weatherlink.com 1.10,2013-02-13 18:23:00,
2013-02-13 13:38:00,82.1,74.0,29.95,SSE,160,0.0,-999.0,77,-99.99,,,0.02,724,weatherlink.com 1.10,2013-02-13 18:38:00,
2013-02-13 13:53:00,82.0,74.0,29.95,WSW,238,3.0,-999.0,77,-99.99,,,0.02,705,weatherlink.com 1.10,2013-02-13 18:53:00,
2013-02-13 14:08:00,82.7,74.0,29.95,SW,223,4.0,-999.0,75,-99.99,,,0.02,686,weatherlink.com 1.10,2013-02-13 19:08:00,
2013-02-13 14:23:00,83.0,74.0,29.94,West,270,3.0,-999.0,74,-99.99,,,0.02,657,weatherlink.com 1.10,2013-02-13 19:23:00,
2013-02-13 14:38:00,82.8,74.0,29.94,South,171,0.0,-999.0,74,-99.99,,,0.02,629,weatherlink.com 1.10,2013-02-13 19:38:00,
2013-02-13 14:53:00,82.8,74.0,29.94,WSW,237,0.0,-999.0,75,-99.99,,,0.02,594,weatherlink.com 1.10,2013-02-13 19:53:00,
2013-02-13 15:08:00,82.8,74.0,29.93,SSW,209,0.0,-999.0,75,-99.99,,,0.02,559,weatherlink.com 1.10,2013-02-13 20:08:00,
2013-02-13 15:23:00,82.3,74.0,29.93,WSW,248,3.0,-999.0,75,-99.99,,,0.02,519,weatherlink.com 1.10,2013-02-13 20:23:00,
2013-02-13 15:38:00,82.3,73.0,29.93,South,180,0.0,-999.0,74,-99.99,,,0.02,478,weatherlink.com 1.10,2013-02-13 20:38:00,
2013-02-13 15:53:00,81.1,73.0,29.93,SW,223,6.0,-999.0,77,-99.99,,,0.02,431,weatherlink.com 1.10,2013-02-13 20:53:00,
2013-02-13 16:08:00,80.1,73.0,29.94,WSW,250,0.0,-999.0,79,-99.99,,,0.02,376,weatherlink.com 1.10,2013-02-13 21:08:00,
2013-02-13 16:23:00,80.3,73.0,29.93,SW,229,1.0,-999.0,79,-99.99,,,0.02,327,weatherlink.com 1.10,2013-02-13 21:23:00,
2013-02-13 16:38:00,80.4,73.0,29.94,WSW,241,0.0,-999.0,79,-99.99,,,0.02,272,weatherlink.com 1.10,2013-02-13 21:38:00,
2013-02-13 16:53:00,79.1,73.0,29.94,SW,232,2.0,-999.0,81,-99.99,,,0.02,221,weatherlink.com 1.10,2013-02-13 21:53:00,
2013-02-13 17:08:00,78.3,72.0,29.94,West,265,2.0,-999.0,82,-99.99,,,0.02,165,weatherlink.com 1.10,2013-02-13 22:08:00,
2013-02-13 17:23:00,77.1,72.0,29.94,WSW,240,0.0,-999.0,84,-99.99,,,0.02,53,weatherlink.com 1.10,2013-02-13 22:23:00,
2013-02-13 17:38:00,76.4,72.0,29.94,WSW,254,0.0,-999.0,86,-99.99,,,0.02,40,weatherlink.com 1.10,2013-02-13 22:38:00,
2013-02-13 17:53:00,75.7,72.0,29.94,SW,231,0.0,-999.0,87,-99.99,,,0.02,28,weatherlink.com 1.10,2013-02-13 22:53:00,
2013-02-13 18:08:00,75.0,71.0,29.94,SW,236,0.0,-999.0,88,-99.99,,,0.02,14,weatherlink.com 1.10,2013-02-13 23:08:00,
2013-02-13 18:23:00,74.4,71.0,29.94,SW,221,0.0,-999.0,90,-99.99,,,0.02,0,weatherlink.com 1.10,2013-02-13 23:23:00,
2013-02-13 18:38:00,73.9,71.0,29.94,WSW,240,0.0,-999.0,91,-99.99,,,0.02,0,weatherlink.com 1.10,2013-02-13 23:38:00,
2013-02-13 18:53:00,73.5,71.0,29.94,SW,225,0.0,-999.0,92,-99.99,,,0.02,0,weatherlink.com 1.10,2013-02-13 23:53:00,
2013-02-13 19:08:00,73.4,71.0,29.94,WSW,241,0.0,-999.0,93,-99.99,,,0.02,0,weatherlink.com 1.10,2013-02-14 00:08:00,
2013-02-13 19:23:00,73.2,71.0,29.93,SW,231,0.0,-999.0,93,-99.99,,,0.02,0,weatherlink.com 1.10,2013-02-14 00:23:00,
2013-02-13 19:38:00,73.1,71.0,29.94,WSW,239,0.0,-999.0,94,-99.99,,,0.02,0,weatherlink.com 1.10,2013-02-14 00:38:00,
2013-02-13 19:53:00,73.0,71.0,29.95,SSW,203,0.0,-999.0,94,-99.99,,,0.02,0,weatherlink.com 1.10,2013-02-14 00:53:00,
2013-02-13 20:08:00,72.9,71.0,29.95,SSW,213,0.0,-999.0,94,-99.99,,,0.02,0,weatherlink.com 1.10,2013-02-14 01:08:00,
2013-02-13 20:23:00,72.9,71.0,29.95,SW,215,0.0,-999.0,94,-99.99,,,0.02,0,weatherlink.com 1.10,2013-02-14 01:23:00,
2013-02-13 20:38:00,72.8,71.0,29.95,SW,214,0.0,-999.0,94,-99.99,,,0.02,0,weatherlink.com 1.10,2013-02-14 01:38:00,
2013-02-13 20:53:00,72.8,71.0,29.96,SW,219,0.0,-999.0,94,-99.99,,,0.02,0,weatherlink.com 1.10,2013-02-14 01:53:00,
2013-02-13 21:08:00,72.6,71.0,29.96,SW,219,0.0,-999.0,94,-99.99,,,0.02,0,weatherlink.com 1.10,2013-02-14 02:08:00,
2013-02-13 21:23:00,72.4,71.0,29.96,SW,219,0.0,-999.0,95,-99.99,,,0.02,0,weatherlink.com 1.10,2013-02-14 02:23:00,
2013-02-13 21:38:00,72.4,71.0,29.97,SW,219,0.0,-999.0,95,-99.99,,,0.02,0,weatherlink.com 1.10,2013-02-14 02:38:00,
2013-02-13 21:53:00,72.3,71.0,29.98,SW,219,0.0,-999.0,95,-99.99,,,0.02,0,weatherlink.com 1.10,2013-02-14 02:53:00,
2013-02-13 22:08:00,72.2,71.0,29.98,SW,219,0.0,-999.0,95,-99.99,,,0.02,0,weatherlink.com 1.10,2013-02-14 03:08:00,
2013-02-13 22:23:00,72.0,71.0,29.98,SW,219,1.0,-999.0,95,-99.99,,,0.02,0,weatherlink.com 1.10,2013-02-14 03:23:00,
2013-02-13 22:38:00,72.0,71.0,29.97,SW,218,0.0,-999.0,95,-99.99,,,0.02,0,weatherlink.com 1.10,2013-02-14 03:38:00,
2013-02-13 22:53:00,72.0,71.0,29.97,SW,218,0.0,-999.0,95,-99.99,,,0.02,0,weatherlink.com 1.10,2013-02-14 03:53:00,
2013-02-13 23:08:00,72.2,71.0,29.97,SW,223,0.0,-999.0,96,-99.99,,,0.02,0,weatherlink.com 1.10,2013-02-14 04:08:00,
2013-02-13 23:23:00,72.6,71.0,29.98,SSW,208,0.0,-999.0,96,-99.99,,,0.02,0,weatherlink.com 1.10,2013-02-14 04:23:00,
2013-02-13 23:38:00,72.7,72.0,29.97,SSW,212,0.0,-999.0,96,-99.99,,,0.02,0,weatherlink.com 1.10,2013-02-14 04:38:00,
2013-02-13 23:53:00,72.6,71.0,29.97,SW,226,0.0,-999.0,96,-99.99,,,0.02,0,weatherlink.com 1.10,2013-02-14 04:53:00,